Time;durP1;ratioP1;P1;durP2;ratioP2;P2;SDS_P1;SDS_P2;PMS_P1;PMS_P2;Temp;Humidity;BMP_temperature;BMP_pressure;BME280_temperature;BME280_humidity;BME280_pressure;Samples;Min_cycle;Max_cycle;Signal;HPM_P1;HPM_P2
2021/11/29 00:00:39;;;;;;;;;;;5.00;99.90;;;;;;5057223;28;20023;-78
2021/11/29 00:03:06;;;;;;;;;;;5.00;99.90;;;;;;5055441;28;19909;-78
2021/11/29 00:05:32;;;;;;;;;;;4.80;99.90;;;;;;5055386;28;19956;-79
2021/11/29 00:08:00;;;;;;;;;;;4.70;99.90;;;;;;5056663;28;20304;-79
2021/11/29 00:10:26;;;;;;;;;;;4.60;99.90;;;;;;5056365;28;19928;-78
2021/11/29 00:12:52;;;;;;;;;;;4.50;99.90;;;;;;5056468;28;19991;-78
2021/11/29 00:15:18;;;;;;;;;;;4.70;99.90;;;;;;5056404;28;19948;-79
2021/11/29 00:17:43;;;;;;;;;;;4.80;99.90;;;;;;5056415;28;19909;-78
2021/11/29 00:20:10;;;;;;;;;;;4.90;99.90;;;;;;5056413;28;19913;-78
2021/11/29 00:22:35;;;;;;;;;;;5.20;99.90;;;;;;5056336;28;19908;-79
2021/11/29 00:25:01;;;;;;;;;;;5.30;99.90;;;;;;5056318;28;20276;-78
2021/11/29 00:27:27;;;;;;;;;;;5.30;99.90;;;;;;5056229;28;20362;-79
2021/11/29 00:29:52;;;;;;;;;;;5.50;99.90;;;;;;5056174;28;19909;-78
2021/11/29 00:32:18;;;;;;;;;;;5.50;99.90;;;;;;5054875;28;20381;-78
2021/11/29 00:34:44;;;;;;;;;;;5.60;99.90;;;;;;5056079;28;20254;-78
2021/11/29 00:37:09;;;;;;;;;;;5.50;99.90;;;;;;5056262;28;19913;-79
2021/11/29 00:39:35;;;;;;;;;;;5.20;99.90;;;;;;5056543;28;19935;-78
2021/11/29 00:42:00;;;;;;;;;;;5.50;99.90;;;;;;5056236;28;19909;-79
2021/11/29 00:44:29;;;;;;;;;;;5.50;99.90;;;;;;5055888;28;19916;-78
2021/11/29 00:46:55;;;;;;;;;;;5.50;99.90;;;;;;5055865;28;19909;-78
2021/11/29 00:49:20;;;;;;;;;;;5.20;99.90;;;;;;5055848;28;19909;-78
2021/11/29 00:51:46;;;;;;;;;;;5.30;99.90;;;;;;5056090;28;20038;-78
2021/11/29 00:54:12;;;;;;;;;;;5.40;99.90;;;;;;5055715;28;19920;-78
2021/11/29 00:56:37;;;;;;;;;;;5.60;99.90;;;;;;5056034;28;19909;-78
2021/11/29 00:59:03;;;;;;;;;;;5.70;99.90;;;;;;5055588;28;20000;-78
2021/11/29 01:01:29;;;;;;;;;;;5.70;99.90;;;;;;5055737;28;19916;-79
2021/11/29 01:03:54;;;;;;;;;;;5.60;99.90;;;;;;5055664;28;20369;-78
2021/11/29 01:06:20;;;;;;;;;;;5.40;99.90;;;;;;5055564;28;19908;-78
2021/11/29 01:08:45;;;;;;;;;;;5.40;99.90;;;;;;5055367;28;19909;-78
2021/11/29 01:11:11;;;;;;;;;;;5.20;99.90;;;;;;5055061;28;20412;-78
2021/11/29 01:13:37;;;;;;;;;;;5.00;99.90;;;;;;5055377;28;20011;-78
2021/11/29 01:16:03;;;;;;;;;;;4.70;99.90;;;;;;5055311;28;19916;-78
2021/11/29 01:18:29;;;;;;;;;;;4.70;99.90;;;;;;5055243;28;19963;-78
2021/11/29 01:20:55;;;;;;;;;;;4.90;99.90;;;;;;5055511;28;19908;-78
2021/11/29 01:23:21;;;;;;;;;;;4.80;99.90;;;;;;5055227;28;19962;-79
2021/11/29 01:25:47;;;;;;;;;;;4.80;99.90;;;;;;5055219;28;19966;-78
2021/11/29 01:28:14;;;;;;;;;;;4.90;99.90;;;;;;5055070;28;20375;-78
2021/11/29 01:30:40;;;;;;;;;;;5.10;99.90;;;;;;5055015;28;20289;-78
2021/11/29 01:33:06;;;;;;;;;;;5.20;99.90;;;;;;5055199;28;20293;-78
2021/11/29 01:35:32;;;;;;;;;;;5.20;99.90;;;;;;5055061;28;19958;-78
2021/11/29 01:37:57;;;;;;;;;;;5.30;99.90;;;;;;5055043;28;20015;-78
2021/11/29 01:40:24;;;;;;;;;;;5.20;99.90;;;;;;5054787;28;20281;-79
2021/11/29 01:43:00;;;;;;;;;;;5.30;99.90;;;;;;5054796;28;20007;-79
2021/11/29 01:45:27;;;;;;;;;;;5.30;99.90;;;;;;5054751;28;19909;-78
2021/11/29 01:47:52;;;;;;;;;;;5.30;99.90;;;;;;5054788;28;19908;-78
2021/11/29 01:50:18;;;;;;;;;;;5.20;99.90;;;;;;5054688;28;19991;-79
2021/11/29 01:52:44;;;;;;;;;;;5.30;99.90;;;;;;5054585;28;20435;-79
2021/11/29 01:55:09;;;;;;;;;;;5.20;99.90;;;;;;5053278;28;19956;-78
2021/11/29 01:57:35;;;;;;;;;;;5.30;99.90;;;;;;5054800;28;19909;-78
2021/11/29 02:00:01;;;;;;;;;;;5.30;99.90;;;;;;5054386;28;19913;-78
2021/11/29 02:02:28;;;;;;;;;;;5.40;99.90;;;;;;5054445;28;19936;-78
2021/11/29 02:04:54;;;;;;;;;;;5.40;99.90;;;;;;5053955;28;19999;-78
2021/11/29 02:07:20;;;;;;;;;;;5.50;99.90;;;;;;5053095;28;19909;-81
2021/11/29 02:09:45;;;;;;;;;;;5.60;99.90;;;;;;5054124;28;20412;-78
2021/11/29 02:12:11;;;;;;;;;;;5.60;99.90;;;;;;5054257;28;19909;-78
2021/11/29 02:14:38;;;;;;;;;;;5.80;99.90;;;;;;5054248;28;19913;-79
2021/11/29 02:17:06;;;;;;;;;;;5.70;99.90;;;;;;5054334;28;19909;-78
2021/11/29 02:19:37;;;;;;;;;;;5.80;99.90;;;;;;5052773;28;19912;-78
2021/11/29 02:22:03;;;;;;;;;;;5.70;99.90;;;;;;5052544;28;19913;-78
2021/11/29 02:24:29;;;;;;;;;;;5.70;99.90;;;;;;5054124;28;19956;-81
2021/11/29 02:26:54;;;;;;;;;;;5.60;99.90;;;;;;5054036;28;20383;-81
2021/11/29 02:29:20;;;;;;;;;;;5.50;99.90;;;;;;5052729;28;20328;-81
2021/11/29 02:31:47;;;;;;;;;;;5.40;99.90;;;;;;5052679;28;19940;-81
2021/11/29 02:34:16;;;;;;;;;;;5.50;99.90;;;;;;5052647;28;20364;-79
2021/11/29 02:36:42;;;;;;;;;;;5.40;99.90;;;;;;5053934;28;19908;-78
2021/11/29 02:39:08;;;;;;;;;;;5.60;99.90;;;;;;5053753;28;20372;-78
2021/11/29 02:41:34;;;;;;;;;;;5.50;99.90;;;;;;5053833;28;19909;-78
2021/11/29 02:44:00;;;;;;;;;;;5.70;99.90;;;;;;5053792;28;19909;-78
2021/11/29 02:46:25;;;;;;;;;;;5.50;99.90;;;;;;5053749;28;19952;-79
2021/11/29 02:48:51;;;;;;;;;;;5.50;99.90;;;;;;5053698;28;19955;-79
2021/11/29 02:51:36;;;;;;;;;;;5.30;99.90;;;;;;5053935;28;19959;-79
2021/11/29 02:54:05;;;;;;;;;;;5.50;99.90;;;;;;5053738;28;20321;-78
2021/11/29 02:56:31;;;;;;;;;;;5.40;99.90;;;;;;5053583;28;19909;-78
2021/11/29 02:58:57;;;;;;;;;;;5.20;99.90;;;;;;5053652;28;19924;-78
2021/11/29 03:01:22;;;;;;;;;;;5.40;99.90;;;;;;5053686;28;19920;-79
2021/11/29 03:03:49;;;;;;;;;;;5.30;99.90;;;;;;5053620;28;19909;-78
2021/11/29 03:06:15;;;;;;;;;;;5.30;99.90;;;;;;5053541;28;20328;-79
2021/11/29 03:08:41;;;;;;;;;;;5.10;99.90;;;;;;5053474;28;19932;-78
2021/11/29 03:11:07;;;;;;;;;;;4.80;99.90;;;;;;5051997;28;20369;-79
2021/11/29 03:13:33;;;;;;;;;;;4.70;99.90;;;;;;5052178;28;20369;-78
2021/11/29 03:15:58;;;;;;;;;;;4.60;99.90;;;;;;5053413;28;20288;-79
2021/11/29 03:18:30;;;;;;;;;;;4.70;99.90;;;;;;5057359;28;19913;-78
2021/11/29 03:20:55;;;;;;;;;;;4.60;99.90;;;;;;5057498;28;19915;-78
2021/11/29 03:23:21;;;;;;;;;;;4.60;99.90;;;;;;5057448;28;20288;-79
2021/11/29 03:25:46;;;;;;;;;;;4.60;99.90;;;;;;5057406;28;19919;-78
2021/11/29 03:28:12;;;;;;;;;;;4.60;99.90;;;;;;5056080;28;19909;-78
2021/11/29 03:30:38;;;;;;;;;;;4.50;99.90;;;;;;5057728;28;19916;-78
2021/11/29 03:33:03;;;;;;;;;;;4.50;99.90;;;;;;5057612;28;19959;-78
2021/11/29 03:35:29;;;;;;;;;;;4.50;99.90;;;;;;5057272;28;20003;-78
2021/11/29 03:37:54;;;;;;;;;;;4.50;99.90;;;;;;5057166;28;20361;-79
2021/11/29 03:40:20;;;;;;;;;;;4.60;99.90;;;;;;5057102;28;19912;-78
2021/11/29 03:42:46;;;;;;;;;;;4.40;99.90;;;;;;5057029;28;19936;-78
2021/11/29 03:45:11;;;;;;;;;;;4.30;99.90;;;;;;5057091;28;20003;-78
2021/11/29 03:47:37;;;;;;;;;;;4.20;99.90;;;;;;5057002;28;19909;-79
2021/11/29 03:50:03;;;;;;;;;;;4.10;99.90;;;;;;5056947;28;19923;-78
2021/11/29 03:52:29;;;;;;;;;;;4.10;99.90;;;;;;5056864;28;19909;-78
2021/11/29 03:54:54;;;;;;;;;;;4.10;99.90;;;;;;5055579;28;19916;-78
2021/11/29 03:57:20;;;;;;;;;;;3.90;99.90;;;;;;5056754;28;19909;-78
2021/11/29 03:59:46;;;;;;;;;;;4.00;99.90;;;;;;5056776;28;19912;-78
2021/11/29 04:02:11;;;;;;;;;;;4.00;99.90;;;;;;5056778;28;19995;-78
2021/11/29 04:04:37;;;;;;;;;;;4.00;99.90;;;;;;5056726;28;20008;-79
2021/11/29 04:07:02;;;;;;;;;;;4.10;99.90;;;;;;5056617;28;19916;-78
2021/11/29 04:09:28;;;;;;;;;;;4.10;99.90;;;;;;5056284;28;19916;-79
2021/11/29 04:11:55;;;;;;;;;;;4.20;99.90;;;;;;5055688;28;20365;-78
2021/11/29 04:14:21;;;;;;;;;;;4.10;99.90;;;;;;5054029;28;19944;-78
2021/11/29 04:16:47;;;;;;;;;;;4.20;99.90;;;;;;5055311;28;19912;-78
2021/11/29 04:19:13;;;;;;;;;;;4.30;99.90;;;;;;5053858;28;19912;-78
2021/11/29 04:21:38;;;;;;;;;;;4.30;99.90;;;;;;5055204;28;19909;-78
2021/11/29 04:24:04;;;;;;;;;;;4.40;99.90;;;;;;5055146;28;19932;-78
2021/11/29 04:26:30;;;;;;;;;;;4.40;99.90;;;;;;5055110;28;19915;-78
2021/11/29 04:28:56;;;;;;;;;;;4.40;99.90;;;;;;5054713;28;20266;-78
2021/11/29 04:31:22;;;;;;;;;;;4.50;99.90;;;;;;5054983;28;20389;-78
2021/11/29 04:33:47;;;;;;;;;;;4.10;99.90;;;;;;5055031;28;19916;-78
2021/11/29 04:36:13;;;;;;;;;;;4.40;99.90;;;;;;5055226;28;19915;-78
2021/11/29 04:38:39;;;;;;;;;;;4.40;99.90;;;;;;5054817;28;19913;-78
2021/11/29 04:41:04;;;;;;;;;;;4.60;99.90;;;;;;5054866;28;19912;-78
2021/11/29 04:43:30;;;;;;;;;;;4.50;99.90;;;;;;5055059;28;20320;-78
2021/11/29 04:45:56;;;;;;;;;;;4.30;99.90;;;;;;5054966;28;20331;-78
2021/11/29 04:48:22;;;;;;;;;;;4.10;99.90;;;;;;5053463;28;20320;-79
2021/11/29 04:50:48;;;;;;;;;;;4.00;99.90;;;;;;5054799;28;19909;-78
2021/11/29 04:53:14;;;;;;;;;;;4.00;99.90;;;;;;5054689;28;19948;-78
2021/11/29 04:55:39;;;;;;;;;;;4.10;99.90;;;;;;5054832;28;19916;-78
2021/11/29 04:58:05;;;;;;;;;;;4.00;99.90;;;;;;5053309;28;20007;-79
2021/11/29 05:00:30;;;;;;;;;;;3.90;99.90;;;;;;5054613;28;19909;-78
2021/11/29 05:02:56;;;;;;;;;;;4.00;99.90;;;;;;5054573;28;19912;-79
2021/11/29 05:05:22;;;;;;;;;;;4.20;99.90;;;;;;5053229;28;19924;-79
2021/11/29 05:07:47;;;;;;;;;;;4.30;99.90;;;;;;5054468;28;19909;-79
2021/11/29 05:11:53;;;;;;;;;;;4.30;99.90;;;;;;5152904;27;19918;-78
2021/11/29 05:14:18;;;;;;;;;;;4.10;99.90;;;;;;5152808;27;20001;-78
2021/11/29 05:16:44;;;;;;;;;;;4.10;99.90;;;;;;5152760;27;19990;-79
2021/11/29 05:19:10;;;;;;;;;;;4.10;99.90;;;;;;5152612;27;19960;-79
2021/11/29 05:21:36;;;;;;;;;;;4.30;99.90;;;;;;5152788;27;19907;-78
2021/11/29 05:24:02;;;;;;;;;;;4.30;99.90;;;;;;5152742;27;19990;-79
2021/11/29 05:26:28;;;;;;;;;;;4.10;99.90;;;;;;5152586;27;20283;-78
2021/11/29 05:28:54;;;;;;;;;;;4.20;99.90;;;;;;5152896;27;19934;-78
2021/11/29 05:31:21;;;;;;;;;;;4.20;99.90;;;;;;5152306;27;20398;-79
2021/11/29 05:33:47;;;;;;;;;;;4.20;99.90;;;;;;5133838;27;19908;-78
2021/11/29 05:36:12;;;;;;;;;;;4.20;99.90;;;;;;5133835;27;20383;-79
2021/11/29 05:38:38;;;;;;;;;;;4.20;99.90;;;;;;5152186;27;19964;-79
2021/11/29 05:41:04;;;;;;;;;;;4.10;99.90;;;;;;5113174;28;19911;-78
2021/11/29 05:43:30;;;;;;;;;;;4.00;99.90;;;;;;5131494;28;19908;-78
2021/11/29 05:45:57;;;;;;;;;;;4.00;99.90;;;;;;5131480;28;20368;-79
2021/11/29 05:48:22;;;;;;;;;;;4.00;99.90;;;;;;5131471;28;19915;-78
2021/11/29 05:50:48;;;;;;;;;;;4.00;99.90;;;;;;5131264;28;19912;-78
2021/11/29 05:53:14;;;;;;;;;;;4.00;99.90;;;;;;5131789;28;19912;-78
2021/11/29 05:55:39;;;;;;;;;;;4.10;99.90;;;;;;5131275;28;20287;-78
2021/11/29 05:58:05;;;;;;;;;;;4.20;99.90;;;;;;5112823;28;19915;-78
2021/11/29 06:00:30;;;;;;;;;;;4.20;99.90;;;;;;5112742;28;19915;-78
2021/11/29 06:02:56;;;;;;;;;;;4.40;99.90;;;;;;5112768;28;19908;-78
2021/11/29 06:05:24;;;;;;;;;;;4.30;99.90;;;;;;5131239;28;19908;-79
2021/11/29 06:07:49;;;;;;;;;;;4.30;99.90;;;;;;5131184;28;19948;-79
2021/11/29 06:10:15;;;;;;;;;;;4.40;99.90;;;;;;5130747;28;20403;-79
2021/11/29 06:12:43;;;;;;;;;;;4.30;99.90;;;;;;5130980;28;20268;-78
2021/11/29 06:15:09;;;;;;;;;;;4.30;99.90;;;;;;5131321;28;19915;-78
2021/11/29 06:17:35;;;;;;;;;;;4.20;99.90;;;;;;5131036;28;20392;-78
2021/11/29 06:20:01;;;;;;;;;;;4.20;99.90;;;;;;5112403;28;19935;-79
2021/11/29 06:22:27;;;;;;;;;;;4.10;99.90;;;;;;5121644;28;19955;-79
2021/11/29 06:24:53;;;;;;;;;;;4.00;99.90;;;;;;5098650;28;19914;-79
2021/11/29 06:27:18;;;;;;;;;;;3.90;99.90;;;;;;5117403;28;19908;-78
2021/11/29 06:29:44;;;;;;;;;;;3.80;99.90;;;;;;5117019;28;19912;-78
2021/11/29 06:32:10;;;;;;;;;;;3.80;99.90;;;;;;5116844;28;20364;-78
2021/11/29 06:34:36;;;;;;;;;;;3.80;99.90;;;;;;5116836;28;19908;-78
2021/11/29 06:37:02;;;;;;;;;;;3.70;99.90;;;;;;5116833;28;19915;-78
2021/11/29 06:39:29;;;;;;;;;;;3.60;99.90;;;;;;5098399;28;20298;-78
2021/11/29 06:41:54;;;;;;;;;;;3.60;99.90;;;;;;5116989;28;19919;-78
2021/11/29 06:44:20;;;;;;;;;;;3.60;99.90;;;;;;5116639;28;19908;-79
2021/11/29 06:46:45;;;;;;;;;;;3.50;99.90;;;;;;5116602;28;19984;-78
2021/11/29 06:49:11;;;;;;;;;;;3.60;99.90;;;;;;5098303;28;19914;-78
2021/11/29 06:51:37;;;;;;;;;;;3.60;99.90;;;;;;5116440;28;19915;-79
2021/11/29 06:54:02;;;;;;;;;;;3.60;99.90;;;;;;5116593;28;19919;-78
2021/11/29 06:56:28;;;;;;;;;;;3.60;99.90;;;;;;5116414;28;19912;-79
2021/11/29 06:58:54;;;;;;;;;;;3.60;99.90;;;;;;5098014;28;19918;-78
2021/11/29 07:01:19;;;;;;;;;;;3.70;99.90;;;;;;5116280;28;19909;-79
2021/11/29 07:03:46;;;;;;;;;;;3.60;99.90;;;;;;5097858;28;19908;-78
2021/11/29 07:06:11;;;;;;;;;;;3.60;99.90;;;;;;5116504;28;19919;-78
2021/11/29 07:08:37;;;;;;;;;;;3.50;99.90;;;;;;5116244;28;19907;-78
2021/11/29 07:11:03;;;;;;;;;;;3.50;99.90;;;;;;5115992;28;20304;-78
2021/11/29 07:13:28;;;;;;;;;;;3.60;99.90;;;;;;5116221;28;19915;-79
2021/11/29 07:15:54;;;;;;;;;;;3.60;99.90;;;;;;5116194;28;19918;-78
2021/11/29 07:18:20;;;;;;;;;;;3.60;99.90;;;;;;5116112;28;20380;-78
2021/11/29 07:20:45;;;;;;;;;;;3.60;99.90;;;;;;5097660;28;19915;-78
2021/11/29 07:23:11;;;;;;;;;;;3.60;99.90;;;;;;5116113;28;19915;-79
2021/11/29 07:25:37;;;;;;;;;;;3.50;99.90;;;;;;5097611;28;20296;-79
2021/11/29 07:28:03;;;;;;;;;;;3.60;99.90;;;;;;5115815;28;19908;-78
2021/11/29 07:30:29;;;;;;;;;;;3.70;99.90;;;;;;5097433;28;20199;-79
2021/11/29 07:32:55;;;;;;;;;;;3.80;99.90;;;;;;5115208;28;19957;-79
2021/11/29 07:35:26;;;;;;;;;;;3.70;99.90;;;;;;5115145;28;19908;-78
2021/11/29 07:37:52;;;;;;;;;;;3.50;99.90;;;;;;5115887;28;20007;-78
2021/11/29 07:40:18;;;;;;;;;;;3.60;99.90;;;;;;5097176;28;19939;-78
2021/11/29 07:42:44;;;;;;;;;;;3.60;99.90;;;;;;5115656;28;19961;-78
2021/11/29 07:45:13;;;;;;;;;;;3.50;99.90;;;;;;5115466;28;19986;-78
2021/11/29 07:47:42;;;;;;;;;;;3.60;99.90;;;;;;5115470;28;20403;-78
2021/11/29 07:50:14;;;;;;;;;;;3.50;99.90;;;;;;5115527;28;19912;-78
2021/11/29 07:52:40;;;;;;;;;;;3.50;99.90;;;;;;5115234;28;20432;-78
2021/11/29 07:55:09;;;;;;;;;;;3.70;99.90;;;;;;5115550;28;19988;-78
2021/11/29 07:57:35;;;;;;;;;;;3.80;99.90;;;;;;5115229;28;19908;-78
2021/11/29 08:00:05;;;;;;;;;;;3.80;99.90;;;;;;5115204;28;20390;-78
2021/11/29 08:02:31;;;;;;;;;;;3.90;99.90;;;;;;5115151;28;20287;-78
2021/11/29 08:04:56;;;;;;;;;;;3.90;99.90;;;;;;5115083;28;19907;-79
2021/11/29 08:07:22;;;;;;;;;;;3.90;99.90;;;;;;5114964;28;19915;-78
2021/11/29 08:09:47;;;;;;;;;;;3.90;99.90;;;;;;5096311;28;19970;-81
2021/11/29 08:12:13;;;;;;;;;;;3.90;99.90;;;;;;5115465;28;19908;-81
2021/11/29 08:14:39;;;;;;;;;;;4.20;99.90;;;;;;5114575;28;19907;-81
2021/11/29 08:17:05;;;;;;;;;;;4.40;99.90;;;;;;5115058;28;19914;-81
2021/11/29 08:19:30;;;;;;;;;;;4.80;99.90;;;;;;5114779;28;19908;-81
2021/11/29 08:21:56;;;;;;;;;;;5.20;99.90;;;;;;5096572;28;19914;-80
2021/11/29 08:24:21;;;;;;;;;;;5.30;99.90;;;;;;5114889;28;20321;-81
2021/11/29 08:26:47;;;;;;;;;;;6.00;99.90;;;;;;5114701;28;19916;-80
2021/11/29 08:29:13;;;;;;;;;;;6.50;99.90;;;;;;5114690;28;19915;-80
2021/11/29 08:31:38;;;;;;;;;;;7.30;99.90;;;;;;5115014;28;19951;-82
2021/11/29 08:34:04;;;;;;;;;;;8.10;99.90;;;;;;5114705;28;19960;-81
2021/11/29 08:36:30;;;;;;;;;;;8.30;99.90;;;;;;5114652;28;19922;-79
2021/11/29 08:38:56;;;;;;;;;;;8.10;99.90;;;;;;5114466;28;19914;-80
2021/11/29 08:41:21;;;;;;;;;;;8.20;99.90;;;;;;5114480;28;19914;-79
2021/11/29 08:43:47;;;;;;;;;;;8.50;99.80;;;;;;5114769;28;19954;-79
2021/11/29 08:46:13;;;;;;;;;;;8.80;99.50;;;;;;5114172;28;19915;-79
2021/11/29 08:48:38;;;;;;;;;;;9.70;96.70;;;;;;5114368;28;19908;-79
2021/11/29 08:51:04;;;;;;;;;;;10.20;94.90;;;;;;5114252;28;20011;-79
2021/11/29 08:53:30;;;;;;;;;;;10.70;93.40;;;;;;5114238;28;19908;-79
2021/11/29 08:55:56;;;;;;;;;;;11.40;92.30;;;;;;5114181;28;20368;-79
2021/11/29 08:58:22;;;;;;;;;;;12.50;90.50;;;;;;5114114;28;19908;-80
2021/11/29 09:00:49;;;;;;;;;;;13.30;85.50;;;;;;5114231;28;19957;-79
2021/11/29 09:03:15;;;;;;;;;;;12.00;85.80;;;;;;5095949;28;19919;-79
2021/11/29 09:05:41;;;;;;;;;;;11.70;89.00;;;;;;5114142;28;19912;-79
2021/11/29 09:08:07;;;;;;;;;;;12.40;89.10;;;;;;5114087;28;19908;-80
2021/11/29 09:10:33;;;;;;;;;;;14.20;82.40;;;;;;5113920;28;20295;-79
2021/11/29 09:12:59;;;;;;;;;;;14.70;77.10;;;;;;5114123;28;19915;-79
2021/11/29 09:15:24;;;;;;;;;;;15.60;75.10;;;;;;5114057;28;19912;-82
2021/11/29 09:17:51;;;;;;;;;;;14.60;74.90;;;;;;5113955;28;19930;-82
2021/11/29 09:20:18;;;;;;;;;;;13.70;77.60;;;;;;5113984;28;20375;-81
2021/11/29 09:22:44;;;;;;;;;;;12.70;81.40;;;;;;5113904;28;19912;-82
2021/11/29 09:25:11;;;;;;;;;;;12.50;82.70;;;;;;5113936;28;20376;-79
2021/11/29 09:27:37;;;;;;;;;;;12.70;82.40;;;;;;5114254;28;19912;-79
2021/11/29 09:30:07;;;;;;;;;;;12.70;82.40;;;;;;5113983;28;20288;-79
2021/11/29 09:32:37;;;;;;;;;;;12.40;82.70;;;;;;5114060;28;19911;-79
2021/11/29 09:35:04;;;;;;;;;;;11.30;86.70;;;;;;5114116;28;19907;-78
2021/11/29 09:37:29;;;;;;;;;;;10.70;90.30;;;;;;5113792;28;19911;-81
2021/11/29 09:39:55;;;;;;;;;;;10.70;90.60;;;;;;5113750;28;19932;-81
2021/11/29 09:42:21;;;;;;;;;;;10.50;91.20;;;;;;5113805;28;20287;-81
2021/11/29 09:44:52;;;;;;;;;;;10.80;91.30;;;;;;5113772;28;19908;-81
2021/11/29 09:47:18;;;;;;;;;;;11.10;90.70;;;;;;5095229;28;20034;-81
2021/11/29 09:49:43;;;;;;;;;;;11.30;90.00;;;;;;5113860;28;19964;-81
2021/11/29 09:52:09;;;;;;;;;;;10.80;90.50;;;;;;5113744;28;19915;-81
2021/11/29 09:54:35;;;;;;;;;;;10.60;91.70;;;;;;5113691;28;19907;-81
2021/11/29 09:57:00;;;;;;;;;;;10.80;91.90;;;;;;5115122;28;19915;-81
2021/11/29 09:59:28;;;;;;;;;;;11.30;90.90;;;;;;5099232;28;19907;-81
2021/11/29 10:01:54;;;;;;;;;;;11.20;90.80;;;;;;5117553;28;20386;-81
2021/11/29 10:04:20;;;;;;;;;;;11.80;89.30;;;;;;5117464;28;19908;-81
2021/11/29 10:06:52;;;;;;;;;;;11.60;89.20;;;;;;5117450;28;19908;-81
2021/11/29 10:09:35;;;;;;;;;;;11.30;89.10;;;;;;5117749;28;19908;-82
2021/11/29 10:12:09;;;;;;;;;;;11.50;89.00;;;;;;5117430;28;19924;-81
2021/11/29 10:14:35;;;;;;;;;;;11.80;88.30;;;;;;5117487;28;19941;-82
2021/11/29 10:17:01;;;;;;;;;;;11.90;87.80;;;;;;5117409;28;19946;-81
2021/11/29 10:19:27;;;;;;;;;;;12.20;88.30;;;;;;5117447;28;19908;-79
2021/11/29 10:21:52;;;;;;;;;;;11.80;86.80;;;;;;5117128;28;19908;-79
2021/11/29 10:24:19;;;;;;;;;;;11.50;88.10;;;;;;5117146;28;19908;-79
2021/11/29 10:26:49;;;;;;;;;;;11.30;90.20;;;;;;5117208;28;19911;-79
2021/11/29 10:29:14;;;;;;;;;;;11.50;88.60;;;;;;5116955;28;19934;-79
2021/11/29 10:31:40;;;;;;;;;;;11.50;87.90;;;;;;5116834;28;20395;-78
2021/11/29 10:34:16;;;;;;;;;;;11.30;88.60;;;;;;5116944;28;19915;-79
2021/11/29 10:36:46;;;;;;;;;;;10.90;89.00;;;;;;5117048;28;20036;-79
2021/11/29 10:39:14;;;;;;;;;;;11.50;90.40;;;;;;5116896;28;19915;-79
2021/11/29 10:41:46;;;;;;;;;;;13.20;88.80;;;;;;5116877;28;19908;-81
2021/11/29 10:44:13;;;;;;;;;;;15.00;79.20;;;;;;5116707;28;20368;-81
2021/11/29 10:46:41;;;;;;;;;;;16.60;72.00;;;;;;5116651;28;19908;-81
2021/11/29 10:49:08;;;;;;;;;;;17.60;70.90;;;;;;5116780;28;19912;-81
2021/11/29 10:51:35;;;;;;;;;;;17.40;68.20;;;;;;5116462;28;19912;-81
2021/11/29 10:54:02;;;;;;;;;;;18.20;67.30;;;;;;5116533;28;20356;-82
2021/11/29 10:56:30;;;;;;;;;;;18.30;65.20;;;;;;5098166;28;20292;-82
2021/11/29 10:58:56;;;;;;;;;;;18.70;63.20;;;;;;5116289;28;19908;-82
2021/11/29 11:01:32;;;;;;;;;;;16.40;65.50;;;;;;5116290;28;19907;-82
2021/11/29 11:03:58;;;;;;;;;;;17.00;64.70;;;;;;5116277;28;19914;-82
2021/11/29 11:06:34;;;;;;;;;;;18.20;63.50;;;;;;5116712;28;20087;-82
2021/11/29 11:09:00;;;;;;;;;;;19.90;59.40;;;;;;5097819;28;19915;-82
2021/11/29 11:11:27;;;;;;;;;;;20.30;58.10;;;;;;5115772;28;20368;-82
2021/11/29 11:13:56;;;;;;;;;;;20.80;56.70;;;;;;5097804;28;19915;-82
2021/11/29 11:16:41;;;;;;;;;;;19.90;56.10;;;;;;5097772;28;19943;-81
2021/11/29 11:19:09;;;;;;;;;;;20.20;57.60;;;;;;5116133;28;19908;-81
2021/11/29 11:21:35;;;;;;;;;;;20.80;55.20;;;;;;5116030;28;19916;-81
2021/11/29 11:24:18;;;;;;;;;;;21.00;54.90;;;;;;5115934;28;19949;-80
2021/11/29 11:26:45;;;;;;;;;;;20.90;54.10;;;;;;5097554;28;19962;-82
2021/11/29 11:29:15;;;;;;;;;;;21.00;54.50;;;;;;5115779;28;19908;-80
2021/11/29 11:31:41;;;;;;;;;;;21.70;53.00;;;;;;5115712;28;20045;-79
2021/11/29 11:34:08;;;;;;;;;;;21.50;52.30;;;;;;5097396;28;19948;-79
2021/11/29 11:36:34;;;;;;;;;;;22.50;52.90;;;;;;5115865;28;20501;-79
2021/11/29 11:39:05;;;;;;;;;;;21.60;52.70;;;;;;5097292;28;20292;-80
2021/11/29 11:41:32;;;;;;;;;;;21.50;53.00;;;;;;5097028;28;19908;-80
2021/11/29 11:43:59;;;;;;;;;;;20.20;55.20;;;;;;5115525;28;19915;-79
2021/11/29 11:46:25;;;;;;;;;;;18.80;56.70;;;;;;5115757;28;19912;-79
2021/11/29 11:48:51;;;;;;;;;;;19.00;58.30;;;;;;5115656;28;19914;-79
2021/11/29 11:51:17;;;;;;;;;;;19.60;57.30;;;;;;5115334;28;19911;-79
2021/11/29 11:53:43;;;;;;;;;;;18.70;57.00;;;;;;5115404;28;19947;-79
2021/11/29 11:56:09;;;;;;;;;;;19.40;57.10;;;;;;5115314;28;20338;-79
2021/11/29 11:58:54;;;;;;;;;;;19.40;56.60;;;;;;5115290;28;19912;-80
2021/11/29 12:01:23;;;;;;;;;;;18.70;58.60;;;;;;5115351;28;19908;-79
2021/11/29 12:03:49;;;;;;;;;;;19.50;57.30;;;;;;5115130;28;19911;-80
2021/11/29 12:06:17;;;;;;;;;;;20.20;56.10;;;;;;5096809;28;20467;-80
2021/11/29 12:08:49;;;;;;;;;;;19.70;54.90;;;;;;5115495;28;19908;-79
2021/11/29 12:11:17;;;;;;;;;;;18.50;57.80;;;;;;5114764;28;20386;-79
2021/11/29 12:13:44;;;;;;;;;;;16.70;59.10;;;;;;5114993;28;20340;-79
2021/11/29 12:16:10;;;;;;;;;;;17.40;60.80;;;;;;5114920;28;19939;-79
2021/11/29 12:18:39;;;;;;;;;;;17.40;59.50;;;;;;5115336;28;19908;-79
2021/11/29 12:21:18;;;;;;;;;;;17.30;61.30;;;;;;5114335;28;19934;-79
2021/11/29 12:23:49;;;;;;;;;;;17.20;61.30;;;;;;5114744;28;19907;-79
2021/11/29 12:26:15;;;;;;;;;;;17.40;61.30;;;;;;5114690;28;19908;-80
2021/11/29 12:28:42;;;;;;;;;;;17.00;63.30;;;;;;5114851;28;19995;-79
2021/11/29 12:31:26;;;;;;;;;;;17.40;61.20;;;;;;5114531;28;19912;-79
2021/11/29 12:33:52;;;;;;;;;;;16.60;61.00;;;;;;5096321;28;19907;-79
2021/11/29 12:36:19;;;;;;;;;;;17.00;62.10;;;;;;5114616;28;19915;-78
2021/11/29 12:38:47;;;;;;;;;;;17.40;61.00;;;;;;5096159;28;20300;-78
2021/11/29 12:41:32;;;;;;;;;;;17.50;60.80;;;;;;5114501;28;19915;-79
2021/11/29 12:44:00;;;;;;;;;;;17.70;60.50;;;;;;5114634;28;19954;-79
2021/11/29 12:46:27;;;;;;;;;;;17.50;59.30;;;;;;5114393;28;19953;-80
2021/11/29 12:48:53;;;;;;;;;;;17.80;59.20;;;;;;5114442;28;20011;-79
2021/11/29 12:51:37;;;;;;;;;;;18.00;58.70;;;;;;5114731;28;19912;-79
2021/11/29 12:54:23;;;;;;;;;;;17.40;60.80;;;;;;5114315;28;19908;-81
2021/11/29 12:57:08;;;;;;;;;;;17.60;62.40;;;;;;5114142;28;19930;-81
2021/11/29 12:59:48;;;;;;;;;;;18.10;58.20;;;;;;5095802;28;20299;-82
2021/11/29 13:02:32;;;;;;;;;;;16.60;60.40;;;;;;5114547;28;19907;-81
2021/11/29 13:04:57;;;;;;;;;;;16.90;61.60;;;;;;5095894;28;20002;-81
2021/11/29 13:07:23;;;;;;;;;;;17.60;60.30;;;;;;5114164;28;19935;-82
2021/11/29 13:09:48;;;;;;;;;;;17.60;59.80;;;;;;5113811;28;19996;-81
2021/11/29 13:12:15;;;;;;;;;;;14.80;62.10;;;;;;5114257;28;20380;-81
2021/11/29 13:14:41;;;;;;;;;;;15.20;65.60;;;;;;5114147;28;19919;-81
2021/11/29 13:17:07;;;;;;;;;;;15.90;65.70;;;;;;5114013;28;19908;-81
2021/11/29 13:19:40;;;;;;;;;;;17.60;62.20;;;;;;5095785;28;19915;-81
2021/11/29 13:22:09;;;;;;;;;;;18.80;58.40;;;;;;5114122;28;20010;-81
2021/11/29 13:24:38;;;;;;;;;;;18.90;58.30;;;;;;5113940;28;19960;-82
2021/11/29 13:27:07;;;;;;;;;;;19.50;57.50;;;;;;5114058;28;19916;-81
2021/11/29 13:29:41;;;;;;;;;;;20.00;55.60;;;;;;5095642;28;19914;-81
2021/11/29 13:32:17;;;;;;;;;;;19.50;55.10;;;;;;5096802;28;20279;-81
2021/11/29 13:35:00;;;;;;;;;;;19.70;55.00;;;;;;5118342;28;19937;-81
2021/11/29 13:37:29;;;;;;;;;;;18.90;56.70;;;;;;5117968;28;20252;-81
2021/11/29 13:40:04;;;;;;;;;;;20.20;56.00;;;;;;5117952;28;19911;-81
2021/11/29 13:42:31;;;;;;;;;;;20.90;54.00;;;;;;5118041;28;19908;-82
2021/11/29 13:44:59;;;;;;;;;;;20.00;57.60;;;;;;5118062;28;19957;-82
2021/11/29 13:47:26;;;;;;;;;;;20.10;57.50;;;;;;5117894;28;19918;-82
2021/11/29 13:49:57;;;;;;;;;;;21.20;54.70;;;;;;5117752;28;20283;-82
2021/11/29 13:52:23;;;;;;;;;;;21.60;54.20;;;;;;5117750;28;19908;-82
2021/11/29 13:54:59;;;;;;;;;;;22.20;52.10;;;;;;5099413;28;19915;-82
2021/11/29 13:57:31;;;;;;;;;;;22.10;51.60;;;;;;5117742;28;19950;-82
2021/11/29 14:00:20;;;;;;;;;;;21.90;52.10;;;;;;5099333;28;19908;-81
2021/11/29 14:02:58;;;;;;;;;;;19.70;53.00;;;;;;5103876;28;19915;-81
2021/11/29 14:05:31;;;;;;;;;;;16.30;58.10;;;;;;5117502;28;19966;-81
2021/11/29 14:07:59;;;;;;;;;;;13.60;64.50;;;;;;5117620;28;19915;-81
2021/11/29 14:10:51;;;;;;;;;;;15.00;65.10;;;;;;5117227;28;19924;-81
2021/11/29 14:13:21;;;;;;;;;;;14.80;65.70;;;;;;5077857;28;19907;-81
2021/11/29 14:16:00;;;;;;;;;;;14.60;66.20;;;;;;5117489;28;19907;-81
2021/11/29 14:18:26;;;;;;;;;;;15.30;66.20;;;;;;5117296;28;20283;-82
2021/11/29 14:20:52;;;;;;;;;;;14.70;65.50;;;;;;5117133;28;19908;-81
2021/11/29 14:23:18;;;;;;;;;;;15.60;64.30;;;;;;5117016;28;19915;-81
2021/11/29 14:25:47;;;;;;;;;;;14.60;65.20;;;;;;5117371;28;19912;-81
2021/11/29 14:28:13;;;;;;;;;;;13.70;67.30;;;;;;5116983;28;19908;-81